Time;durP1;ratioP1;P1;durP2;ratioP2;P2;SDS_P1;SDS_P2;PMS_P1;PMS_P2;Temp;Humidity;BMP_temperature;BMP_pressure;BME280_temperature;BME280_humidity;BME280_pressure;Samples;Min_cycle;Max_cycle;Signal;HPM_P1;HPM_P2
2022/12/10 00:00:39;;;;;;;47.85;30.40;;;;;;;;;;5083240;28;20070;-46
2022/12/10 00:03:04;;;;;;;61.05;34.72;;;;;;;;;;5086019;28;20919;-48
2022/12/10 00:05:29;;;;;;;62.47;32.78;;;;;;;;;;5085122;28;20474;-46
2022/12/10 00:07:55;;;;;;;53.55;32.40;;;;;;;;;;5083903;28;20547;-46
2022/12/10 00:10:20;;;;;;;72.25;38.50;;;;;;;;;;5084127;28;20032;-50
2022/12/10 00:12:46;;;;;;;73.93;37.38;;;;;;;;;;5083604;28;20405;-46
2022/12/10 00:15:11;;;;;;;67.80;36.47;;;;;;;;;;5080967;28;20065;-46
2022/12/10 00:17:36;;;;;;;64.75;34.90;;;;;;;;;;5079187;28;20039;-46
2022/12/10 00:20:02;;;;;;;69.32;34.42;;;;;;;;;;5083897;28;20397;-46
2022/12/10 00:22:27;;;;;;;64.13;33.05;;;;;;;;;;5082678;28;20040;-48
2022/12/10 00:24:53;;;;;;;47.40;29.08;;;;;;;;;;5085870;28;20173;-48
2022/12/10 00:27:18;;;;;;;49.28;30.65;;;;;;;;;;5084393;28;20510;-48
2022/12/10 00:29:44;;;;;;;52.88;30.50;;;;;;;;;;5082204;28;20034;-47
2022/12/10 00:32:09;;;;;;;44.58;29.08;;;;;;;;;;5081464;28;20032;-46
2022/12/10 00:34:35;;;;;;;40.15;26.70;;;;;;;;;;5082952;28;20032;-47
2022/12/10 00:37:00;;;;;;;39.85;27.23;;;;;;;;;;5084117;28;20040;-46
2022/12/10 00:39:26;;;;;;;40.17;26.48;;;;;;;;;;5084626;28;20115;-46
2022/12/10 00:41:52;;;;;;;38.05;24.40;;;;;;;;;;5085368;28;20123;-46
2022/12/10 00:44:17;;;;;;;32.65;23.10;;;;;;;;;;5085006;28;20158;-46
2022/12/10 00:46:43;;;;;;;39.92;23.85;;;;;;;;;;5084632;28;20043;-47
2022/12/10 00:49:09;;;;;;;40.22;24.60;;;;;;;;;;5079467;28;20020;-47
2022/12/10 00:51:34;;;;;;;38.95;25.40;;;;;;;;;;5084437;28;20067;-48
2022/12/10 00:54:00;;;;;;;41.30;25.08;;;;;;;;;;5082264;28;20830;-50
2022/12/10 00:56:28;;;;;;;43.70;24.83;;;;;;;;;;5084083;28;20056;-49
2022/12/10 00:58:54;;;;;;;38.88;24.85;;;;;;;;;;5082648;28;20024;-46
2022/12/10 01:01:31;;;;;;;39.30;25.02;;;;;;;;;;5082459;28;20517;-51
2022/12/10 01:04:04;;;;;;;38.53;25.17;;;;;;;;;;5081376;28;20027;-46
2022/12/10 01:06:35;;;;;;;41.83;25.80;;;;;;;;;;5082879;28;20025;-46
2022/12/10 01:09:04;;;;;;;38.40;24.85;;;;;;;;;;5082734;28;20081;-49
2022/12/10 01:11:31;;;;;;;38.90;23.80;;;;;;;;;;5087653;28;20073;-47
2022/12/10 01:13:57;;;;;;;37.25;23.38;;;;;;;;;;5088487;28;20039;-46
2022/12/10 01:16:23;;;;;;;41.58;23.00;;;;;;;;;;5087103;28;20044;-49
2022/12/10 01:18:49;;;;;;;35.47;22.00;;;;;;;;;;5119239;27;20088;-49
2022/12/10 01:21:17;;;;;;;40.70;22.85;;;;;;;;;;5088458;28;20036;-49
2022/12/10 01:23:44;;;;;;;30.42;19.30;;;;;;;;;;5087121;28;20028;-48
2022/12/10 01:26:15;;;;;;;38.22;21.27;;;;;;;;;;5084848;28;20135;-46
2022/12/10 01:28:41;;;;;;;21.85;13.55;;;;;;;;;;5085154;28;20035;-47
2022/12/10 01:31:12;;;;;;;15.65;10.85;;;;;;;;;;5085170;28;20031;-48
2022/12/10 01:33:39;;;;;;;13.85;10.45;;;;;;;;;;5083778;28;20028;-46
2022/12/10 01:36:07;;;;;;;14.52;9.57;;;;;;;;;;5089043;28;20048;-47
2022/12/10 01:38:33;;;;;;;12.68;9.15;;;;;;;;;;5088709;28;20028;-47
2022/12/10 01:41:00;;;;;;;13.32;9.85;;;;;;;;;;5084234;28;20085;-50
2022/12/10 01:43:27;;;;;;;16.00;9.75;;;;;;;;;;5087843;28;20362;-49
2022/12/10 01:45:53;;;;;;;15.52;10.02;;;;;;;;;;5082486;28;20028;-46
2022/12/10 01:48:19;;;;;;;12.57;10.52;;;;;;;;;;5087902;28;20472;-47
2022/12/10 01:50:44;;;;;;;13.70;10.35;;;;;;;;;;5084406;28;20073;-46
2022/12/10 01:53:11;;;;;;;16.25;10.55;;;;;;;;;;5087660;28;20048;-48
2022/12/10 01:55:42;;;;;;;13.50;9.68;;;;;;;;;;5086022;28;20428;-46
2022/12/10 01:58:08;;;;;;;14.27;9.63;;;;;;;;;;5086789;28;20075;-46
2022/12/10 02:00:38;;;;;;;15.60;10.25;;;;;;;;;;5083674;28;20051;-46
2022/12/10 02:03:14;;;;;;;15.95;9.93;;;;;;;;;;5083593;28;20062;-47
2022/12/10 02:05:44;;;;;;;16.67;9.77;;;;;;;;;;5084043;28;20032;-49
2022/12/10 02:08:15;;;;;;;12.38;9.80;;;;;;;;;;5086760;28;20062;-46
2022/12/10 02:11:13;;;;;;;14.87;9.77;;;;;;;;;;5084809;28;20028;-48
2022/12/10 02:13:40;;;;;;;14.70;9.57;;;;;;;;;;5084897;28;21039;-46
2022/12/10 02:16:24;;;;;;;14.65;9.63;;;;;;;;;;5083297;28;20040;-48
2022/12/10 02:18:57;;;;;;;17.10;10.25;;;;;;;;;;5085329;28;20078;-46
2022/12/10 02:21:29;;;;;;;19.27;10.23;;;;;;;;;;5085267;28;20514;-46
2022/12/10 02:24:01;;;;;;;18.38;10.68;;;;;;;;;;5086564;28;20077;-47
2022/12/10 02:26:48;;;;;;;14.85;9.68;;;;;;;;;;5085327;28;20039;-46
2022/12/10 02:29:15;;;;;;;15.82;9.60;;;;;;;;;;5086229;28;20036;-48
2022/12/10 02:31:46;;;;;;;18.70;10.43;;;;;;;;;;5080395;28;20070;-47
2022/12/10 02:34:13;;;;;;;14.05;9.27;;;;;;;;;;5085171;28;20124;-46
2022/12/10 02:36:42;;;;;;;16.15;10.13;;;;;;;;;;5085075;28;20405;-48
2022/12/10 02:39:11;;;;;;;16.33;10.00;;;;;;;;;;5086098;28;20155;-46
2022/12/10 02:41:41;;;;;;;12.32;8.68;;;;;;;;;;5082691;28;20093;-47
2022/12/10 02:44:10;;;;;;;12.98;9.35;;;;;;;;;;5087995;28;20478;-49
2022/12/10 02:46:38;;;;;;;17.10;10.10;;;;;;;;;;5084993;28;20060;-50
2022/12/10 02:49:05;;;;;;;16.40;9.82;;;;;;;;;;5085550;28;20035;-48
2022/12/10 02:51:31;;;;;;;15.43;10.40;;;;;;;;;;5084513;28;20367;-48
2022/12/10 02:54:04;;;;;;;15.77;10.05;;;;;;;;;;5085768;28;20040;-46
2022/12/10 02:56:34;;;;;;;20.42;10.38;;;;;;;;;;5083653;28;20092;-46
2022/12/10 02:59:05;;;;;;;16.60;10.63;;;;;;;;;;5086120;28;20061;-46
2022/12/10 03:01:42;;;;;;;17.67;10.32;;;;;;;;;;5084674;28;20119;-48
2022/12/10 03:04:22;;;;;;;16.92;10.32;;;;;;;;;;5083233;28;20039;-47
2022/12/10 03:06:55;;;;;;;15.85;10.15;;;;;;;;;;5080414;28;20045;-46
2022/12/10 03:09:29;;;;;;;22.10;10.60;;;;;;;;;;5085409;28;20113;-46
2022/12/10 03:12:02;;;;;;;17.88;9.95;;;;;;;;;;5086201;28;20082;-48
2022/12/10 03:14:32;;;;;;;14.55;9.68;;;;;;;;;;5082802;28;20024;-48
2022/12/10 03:16:59;;;;;;;15.88;9.38;;;;;;;;;;5085665;28;21533;-46
2022/12/10 03:19:41;;;;;;;11.50;8.93;;;;;;;;;;5084874;28;20039;-46
2022/12/10 03:22:09;;;;;;;13.45;9.05;;;;;;;;;;5079344;28;20490;-46
2022/12/10 03:24:35;;;;;;;15.55;10.38;;;;;;;;;;5084319;28;20055;-47
2022/12/10 03:27:03;;;;;;;12.52;9.38;;;;;;;;;;5111204;27;20043;-47
2022/12/10 03:29:37;;;;;;;15.18;9.30;;;;;;;;;;5071303;28;20524;-46
2022/12/10 03:32:04;;;;;;;11.57;8.75;;;;;;;;;;5063599;28;20051;-46
2022/12/10 03:34:29;;;;;;;13.90;9.50;;;;;;;;;;5066548;28;20025;-47
2022/12/10 03:36:55;;;;;;;14.23;9.93;;;;;;;;;;5064082;28;20063;-46
2022/12/10 03:39:21;;;;;;;13.05;9.77;;;;;;;;;;5064215;28;20163;-49
2022/12/10 03:41:46;;;;;;;11.82;9.15;;;;;;;;;;5062034;28;20119;-48
2022/12/10 03:44:12;;;;;;;12.25;8.13;;;;;;;;;;5064683;28;20376;-46
2022/12/10 03:46:38;;;;;;;14.27;8.80;;;;;;;;;;5064638;28;20029;-46
2022/12/10 03:49:04;;;;;;;10.57;8.40;;;;;;;;;;5064810;28;20032;-48
2022/12/10 03:51:29;;;;;;;11.50;8.52;;;;;;;;;;5063472;28;20048;-49
2022/12/10 03:53:55;;;;;;;11.23;8.18;;;;;;;;;;5065450;28;20029;-50
2022/12/10 03:56:21;;;;;;;9.60;7.85;;;;;;;;;;5063598;28;20171;-49
2022/12/10 03:58:47;;;;;;;11.80;8.40;;;;;;;;;;5064583;28;20486;-46
2022/12/10 04:01:13;;;;;;;9.10;7.53;;;;;;;;;;5063903;28;20052;-51
2022/12/10 04:03:39;;;;;;;13.45;8.65;;;;;;;;;;5063599;28;20028;-47
2022/12/10 04:06:10;;;;;;;13.52;9.60;;;;;;;;;;5064915;28;20020;-47
2022/12/10 04:08:36;;;;;;;12.88;9.10;;;;;;;;;;5064485;28;20204;-47
2022/12/10 04:11:06;;;;;;;9.73;7.97;;;;;;;;;;5064025;28;20044;-51
2022/12/10 04:16:29;;;;;;;13.02;8.40;;;;;;;;;;5061417;28;20062;-49
2022/12/10 04:19:08;;;;;;;12.15;8.27;;;;;;;;;;5065568;28;20444;-45
2022/12/10 04:27:31;;;;;;;9.45;7.70;;;;;;;;;;5061404;28;20086;-46
2022/12/10 04:29:58;;;;;;;11.50;8.40;;;;;;;;;;5060504;28;20115;-46
2022/12/10 04:32:25;;;;;;;10.63;8.45;;;;;;;;;;5061439;28;20411;-46
2022/12/10 04:34:50;;;;;;;11.65;8.65;;;;;;;;;;5063489;28;20051;-46
2022/12/10 04:37:17;;;;;;;14.80;9.10;;;;;;;;;;5063832;28;20557;-47
2022/12/10 04:39:42;;;;;;;13.38;9.65;;;;;;;;;;5066198;28;20636;-46
2022/12/10 04:42:08;;;;;;;13.88;9.73;;;;;;;;;;5063931;28;20116;-47
2022/12/10 04:44:34;;;;;;;14.50;10.75;;;;;;;;;;5065729;28;20021;-52
2022/12/10 04:47:00;;;;;;;17.00;11.68;;;;;;;;;;5068176;28;20127;-46
2022/12/10 04:49:26;;;;;;;18.67;11.65;;;;;;;;;;5067816;28;20032;-51
2022/12/10 04:51:52;;;;;;;21.05;12.57;;;;;;;;;;5065682;28;20094;-46
2022/12/10 04:54:18;;;;;;;16.27;11.43;;;;;;;;;;5067286;28;20507;-47
2022/12/10 04:56:44;;;;;;;17.83;12.13;;;;;;;;;;5068411;28;20036;-47
2022/12/10 04:59:10;;;;;;;18.92;11.88;;;;;;;;;;5064265;28;20025;-48
2022/12/10 05:01:35;;;;;;;17.05;12.18;;;;;;;;;;5066190;28;20145;-50
2022/12/10 05:04:04;;;;;;;18.50;12.32;;;;;;;;;;5068767;28;20078;-46
2022/12/10 05:06:30;;;;;;;18.58;12.25;;;;;;;;;;5064555;28;20068;-47
2022/12/10 05:08:56;;;;;;;21.48;12.85;;;;;;;;;;5067257;28;20056;-47
2022/12/10 05:11:23;;;;;;;18.98;11.88;;;;;;;;;;5065438;28;20043;-48
2022/12/10 05:13:49;;;;;;;18.98;12.00;;;;;;;;;;5068709;28;20032;-51
2022/12/10 05:16:17;;;;;;;18.95;12.68;;;;;;;;;;5066017;28;20407;-50
2022/12/10 05:18:42;;;;;;;20.88;12.35;;;;;;;;;;5065178;28;20473;-52
2022/12/10 05:21:13;;;;;;;19.23;13.15;;;;;;;;;;5067941;28;20076;-46
2022/12/10 05:23:42;;;;;;;18.50;12.80;;;;;;;;;;5064399;28;20524;-46
2022/12/10 05:26:19;;;;;;;23.83;13.35;;;;;;;;;;5067738;28;20039;-46
2022/12/10 05:28:55;;;;;;;26.45;12.90;;;;;;;;;;5064513;28;20028;-50
2022/12/10 05:31:25;;;;;;;20.48;13.60;;;;;;;;;;5063774;28;20445;-46
2022/12/10 05:33:51;;;;;;;21.05;12.98;;;;;;;;;;5067579;28;20108;-47
2022/12/10 05:36:19;;;;;;;18.42;11.50;;;;;;;;;;5067004;28;20048;-49
2022/12/10 05:38:46;;;;;;;21.52;11.82;;;;;;;;;;5067715;28;20071;-46
2022/12/10 05:41:14;;;;;;;16.77;11.48;;;;;;;;;;5063901;28;20498;-47
2022/12/10 05:43:40;;;;;;;21.70;11.45;;;;;;;;;;5064753;28;20036;-52
2022/12/10 05:46:09;;;;;;;18.85;12.38;;;;;;;;;;5065721;28;20021;-50
2022/12/10 05:48:36;;;;;;;17.20;12.13;;;;;;;;;;5064219;28;20631;-49
2022/12/10 05:51:05;;;;;;;16.55;11.63;;;;;;;;;;5065512;28;20074;-49
2022/12/10 05:53:31;;;;;;;19.60;11.57;;;;;;;;;;5064878;28;20032;-50
2022/12/10 05:56:05;;;;;;;15.30;11.10;;;;;;;;;;5066023;28;20028;-48
2022/12/10 05:58:31;;;;;;;16.02;11.02;;;;;;;;;;5066632;28;20504;-49
2022/12/10 06:00:57;;;;;;;22.23;10.90;;;;;;;;;;5067556;28;20044;-47
2022/12/10 06:03:24;;;;;;;15.73;10.88;;;;;;;;;;5068112;28;20028;-46
2022/12/10 06:05:49;;;;;;;15.18;11.13;;;;;;;;;;5065795;28;20063;-47
2022/12/10 06:08:15;;;;;;;16.15;11.20;;;;;;;;;;5067373;28;20139;-45
2022/12/10 06:10:40;;;;;;;15.38;10.95;;;;;;;;;;5067502;28;20162;-46
2022/12/10 06:13:05;;;;;;;14.32;11.02;;;;;;;;;;5065382;28;20068;-46
2022/12/10 06:15:32;;;;;;;17.52;11.80;;;;;;;;;;5067039;28;20025;-46
2022/12/10 06:17:58;;;;;;;14.30;10.18;;;;;;;;;;5066586;28;20040;-47
2022/12/10 06:20:24;;;;;;;17.48;11.05;;;;;;;;;;5064738;28;20024;-46
2022/12/10 06:22:50;;;;;;;15.30;10.85;;;;;;;;;;5065188;28;20029;-46
2022/12/10 06:25:15;;;;;;;15.73;11.20;;;;;;;;;;5068528;28;20037;-46
2022/12/10 06:27:40;;;;;;;13.68;9.52;;;;;;;;;;5062151;28;20037;-46
2022/12/10 06:30:06;;;;;;;12.95;10.07;;;;;;;;;;5066857;28;20035;-48
2022/12/10 06:32:32;;;;;;;14.15;9.95;;;;;;;;;;5063763;28;20029;-46
2022/12/10 06:34:57;;;;;;;18.30;10.70;;;;;;;;;;5066036;28;20603;-47
2022/12/10 06:37:23;;;;;;;14.57;9.93;;;;;;;;;;5061726;28;20127;-48
2022/12/10 06:39:53;;;;;;;13.60;10.50;;;;;;;;;;5064066;28;22256;-46
2022/12/10 06:42:19;;;;;;;16.02;10.00;;;;;;;;;;5063633;28;20517;-46
2022/12/10 06:44:45;;;;;;;15.23;10.27;;;;;;;;;;5064795;28;20036;-46
2022/12/10 06:47:10;;;;;;;14.18;9.70;;;;;;;;;;5066402;28;20033;-47
2022/12/10 06:49:36;;;;;;;14.40;9.75;;;;;;;;;;5067169;28;20038;-47
2022/12/10 06:52:02;;;;;;;10.85;8.52;;;;;;;;;;5063920;28;20044;-46
2022/12/10 06:54:28;;;;;;;12.02;9.23;;;;;;;;;;5060883;28;20086;-46
2022/12/10 06:56:53;;;;;;;11.80;8.52;;;;;;;;;;5062812;28;20052;-46
2022/12/10 06:59:20;;;;;;;12.57;8.98;;;;;;;;;;5065492;28;20036;-46
2022/12/10 07:01:46;;;;;;;12.07;9.27;;;;;;;;;;5065042;28;20130;-45
2022/12/10 07:04:11;;;;;;;10.98;8.05;;;;;;;;;;5065889;28;20128;-45
2022/12/10 07:06:36;;;;;;;12.18;8.38;;;;;;;;;;5064024;28;20040;-46
2022/12/10 07:09:02;;;;;;;10.23;8.60;;;;;;;;;;5062481;28;20451;-46
2022/12/10 07:11:27;;;;;;;10.13;7.55;;;;;;;;;;5064853;28;20522;-46
2022/12/10 07:13:53;;;;;;;10.30;7.80;;;;;;;;;;5064537;28;20470;-46
2022/12/10 07:16:25;;;;;;;10.57;7.68;;;;;;;;;;5063840;28;20506;-45
2022/12/10 07:18:50;;;;;;;9.77;7.90;;;;;;;;;;5061377;28;20025;-46
2022/12/10 07:21:21;;;;;;;11.23;8.52;;;;;;;;;;5065462;28;20044;-46
2022/12/10 07:23:47;;;;;;;17.33;8.20;;;;;;;;;;5056689;28;20016;-49
2022/12/10 07:26:13;;;;;;;9.85;7.15;;;;;;;;;;5062163;28;20049;-47
2022/12/10 07:28:39;;;;;;;8.82;6.75;;;;;;;;;;5065578;28;20089;-46
2022/12/10 07:31:06;;;;;;;10.88;7.40;;;;;;;;;;5062709;28;20350;-46
2022/12/10 07:33:33;;;;;;;15.15;7.80;;;;;;;;;;5060698;28;20031;-48
2022/12/10 07:35:58;;;;;;;17.17;8.27;;;;;;;;;;5064008;28;20079;-46
2022/12/10 07:38:24;;;;;;;10.98;7.40;;;;;;;;;;5064449;28;20546;-46
2022/12/10 07:40:50;;;;;;;11.00;7.00;;;;;;;;;;5063587;28;20074;-47
2022/12/10 07:43:16;;;;;;;6.70;5.30;;;;;;;;;;5064495;28;20032;-49
2022/12/10 07:45:42;;;;;;;9.02;5.88;;;;;;;;;;5064358;28;20080;-45
2022/12/10 07:48:07;;;;;;;6.88;5.72;;;;;;;;;;5065441;28;20046;-46
2022/12/10 07:50:32;;;;;;;8.05;5.15;;;;;;;;;;5064696;28;20032;-48
2022/12/10 07:52:58;;;;;;;4.82;4.10;;;;;;;;;;5057885;28;20101;-49
2022/12/10 07:55:24;;;;;;;6.43;5.40;;;;;;;;;;5062415;28;20038;-47
2022/12/10 07:57:49;;;;;;;5.15;4.60;;;;;;;;;;5062887;28;20040;-48
2022/12/10 08:00:14;;;;;;;6.40;4.38;;;;;;;;;;5063095;28;20029;-49
2022/12/10 08:02:40;;;;;;;5.65;4.63;;;;;;;;;;5062250;28;20045;-48
2022/12/10 08:05:05;;;;;;;4.50;4.07;;;;;;;;;;5065248;28;20025;-48
2022/12/10 08:07:32;;;;;;;3.83;3.53;;;;;;;;;;5064357;28;20086;-47
2022/12/10 08:09:57;;;;;;;4.70;4.20;;;;;;;;;;5061867;28;20509;-45
2022/12/10 08:12:23;;;;;;;3.40;3.10;;;;;;;;;;5063502;28;20037;-45
2022/12/10 08:14:48;;;;;;;3.33;3.03;;;;;;;;;;5065481;28;20189;-45
2022/12/10 08:17:13;;;;;;;3.42;3.13;;;;;;;;;;5070480;28;20126;-45
2022/12/10 08:19:39;;;;;;;3.67;3.38;;;;;;;;;;5083137;28;20039;-46
2022/12/10 08:22:04;;;;;;;3.90;3.45;;;;;;;;;;5074120;28;20490;-47
2022/12/10 08:24:30;;;;;;;3.30;3.00;;;;;;;;;;5068545;28;20027;-47
2022/12/10 08:26:55;;;;;;;3.17;2.88;;;;;;;;;;5066673;28;20494;-47
2022/12/10 08:29:20;;;;;;;4.20;3.38;;;;;;;;;;5063437;28;20055;-49
2022/12/10 08:31:46;;;;;;;3.25;3.05;;;;;;;;;;5064312;28;20404;-46
2022/12/10 08:34:16;;;;;;;3.70;3.17;;;;;;;;;;5059231;28;20029;-49
2022/12/10 08:36:42;;;;;;;3.40;3.10;;;;;;;;;;5056939;28;20697;-48
2022/12/10 08:39:10;;;;;;;4.15;3.72;;;;;;;;;;5057544;28;20091;-46
2022/12/10 08:41:35;;;;;;;3.65;3.35;;;;;;;;;;5058671;28;20063;-45
2022/12/10 08:44:01;;;;;;;3.92;3.63;;;;;;;;;;5059485;28;20036;-46
2022/12/10 08:46:26;;;;;;;4.53;3.33;;;;;;;;;;5055981;28;20043;-49
2022/12/10 08:48:51;;;;;;;4.15;3.25;;;;;;;;;;5063628;28;20020;-45
2022/12/10 08:51:18;;;;;;;3.78;3.47;;;;;;;;;;5060422;28;20082;-45
2022/12/10 08:53:45;;;;;;;3.35;3.05;;;;;;;;;;5054684;28;20051;-45
2022/12/10 08:56:11;;;;;;;3.42;3.13;;;;;;;;;;5058894;28;20032;-46
2022/12/10 08:58:37;;;;;;;3.13;2.92;;;;;;;;;;5055597;28;20039;-46
2022/12/10 09:01:08;;;;;;;3.60;3.30;;;;;;;;;;5059071;28;22089;-44
2022/12/10 09:03:35;;;;;;;3.38;3.08;;;;;;;;;;5059493;28;20550;-45
2022/12/10 09:06:10;;;;;;;3.67;3.38;;;;;;;;;;5055992;28;20071;-45
2022/12/10 09:08:36;;;;;;;3.60;3.30;;;;;;;;;;5053369;28;20024;-45
2022/12/10 09:11:10;;;;;;;3.55;3.25;;;;;;;;;;5061827;28;20445;-45
2022/12/10 09:13:36;;;;;;;3.78;3.47;;;;;;;;;;5055108;28;20546;-46
2022/12/10 09:16:02;;;;;;;3.90;3.60;;;;;;;;;;5059610;28;20104;-45
2022/12/10 09:18:27;;;;;;;3.80;3.50;;;;;;;;;;5054784;28;20075;-49
2022/12/10 09:20:53;;;;;;;3.60;3.30;;;;;;;;;;5057202;28;20068;-44
2022/12/10 09:23:18;;;;;;;3.17;2.97;;;;;;;;;;5062156;28;20031;-47
2022/12/10 09:25:43;;;;;;;3.45;3.10;;;;;;;;;;5058146;28;20024;-45
2022/12/10 09:28:09;;;;;;;3.55;3.25;;;;;;;;;;5061838;28;20098;-46
2022/12/10 09:30:34;;;;;;;3.20;2.97;;;;;;;;;;5063147;28;20032;-45
2022/12/10 09:33:00;;;;;;;3.72;3.40;;;;;;;;;;5067311;28;20035;-44
2022/12/10 09:35:25;;;;;;;3.75;3.45;;;;;;;;;;5066933;28;20052;-47
2022/12/10 09:37:50;;;;;;;4.18;3.35;;;;;;;;;;5066579;28;20500;-46
2022/12/10 09:40:29;;;;;;;4.10;3.70;;;;;;;;;;5067033;28;20066;-47
2022/12/10 09:43:04;;;;;;;3.60;3.30;;;;;;;;;;5062446;28;20048;-45
2022/12/10 09:45:39;;;;;;;4.07;3.67;;;;;;;;;;5063981;28;20078;-46
2022/12/10 09:48:25;;;;;;;5.03;4.30;;;;;;;;;;5063492;28;20068;-49
2022/12/10 09:51:03;;;;;;;4.38;3.97;;;;;;;;;;5068774;28;20043;-50
2022/12/10 09:53:29;;;;;;;6.22;4.10;;;;;;;;;;5067343;28;20376;-48
2022/12/10 09:55:57;;;;;;;4.38;3.97;;;;;;;;;;5065695;28;20083;-44
2022/12/10 09:58:25;;;;;;;4.32;3.92;;;;;;;;;;5063994;28;20036;-48
2022/12/10 10:00:57;;;;;;;4.30;3.70;;;;;;;;;;5067543;28;20082;-44
2022/12/10 10:03:23;;;;;;;5.53;4.38;;;;;;;;;;5063496;28;20059;-47
2022/12/10 10:05:51;;;;;;;4.80;4.30;;;;;;;;;;5065965;28;20040;-42
2022/12/10 10:08:22;;;;;;;5.22;4.72;;;;;;;;;;5066519;28;20075;-45
2022/12/10 10:10:48;;;;;;;6.30;5.70;;;;;;;;;;5065954;28;20025;-45
2022/12/10 10:13:58;;;;;;;5.38;4.88;;;;;;;;;;5063110;28;20039;-44
2022/12/10 10:16:33;;;;;;;7.75;5.20;;;;;;;;;;5045958;28;20580;-45
2022/12/10 10:19:13;;;;;;;5.95;5.43;;;;;;;;;;5045264;28;20098;-45
2022/12/10 10:21:41;;;;;;;18.70;11.68;;;;;;;;;;5044837;28;20048;-45
2022/12/10 10:24:15;;;;;;;13.18;9.32;;;;;;;;;;5047508;28;20186;-45
2022/12/10 10:26:40;;;;;;;9.93;7.65;;;;;;;;;;5045267;28;20041;-44
2022/12/10 10:29:08;;;;;;;10.80;8.98;;;;;;;;;;5045466;28;20040;-44
2022/12/10 10:31:35;;;;;;;7.45;6.68;;;;;;;;;;5042334;28;20091;-45
2022/12/10 10:34:11;;;;;;;12.68;9.85;;;;;;;;;;5046626;28;20037;-47
2022/12/10 10:36:38;;;;;;;7.53;6.82;;;;;;;;;;5045005;28;20131;-44
2022/12/10 10:39:15;;;;;;;8.00;6.45;;;;;;;;;;5046663;28;20598;-48
2022/12/10 10:41:41;;;;;;;7.10;6.40;;;;;;;;;;5044538;28;20507;-44
2022/12/10 10:44:16;;;;;;;7.53;6.82;;;;;;;;;;5046987;28;20090;-46
2022/12/10 10:46:44;;;;;;;7.55;6.75;;;;;;;;;;5046005;28;20507;-48
2022/12/10 10:49:19;;;;;;;10.82;9.05;;;;;;;;;;5046728;28;20467;-46
2022/12/10 10:51:47;;;;;;;5.63;5.13;;;;;;;;;;5059114;28;20065;-44
2022/12/10 10:54:32;;;;;;;6.60;5.75;;;;;;;;;;5065867;28;20052;-48
2022/12/10 10:56:57;;;;;;;6.22;5.63;;;;;;;;;;5073506;28;20040;-48
2022/12/10 10:59:32;;;;;;;9.80;8.50;;;;;;;;;;5084670;28;20122;-45
2022/12/10 11:02:11;;;;;;;7.85;6.35;;;;;;;;;;5085744;28;20032;-49
2022/12/10 11:04:45;;;;;;;11.05;7.30;;;;;;;;;;5085342;28;20059;-45
2022/12/10 11:07:18;;;;;;;7.47;6.57;;;;;;;;;;5087596;28;20453;-47
2022/12/10 11:09:44;;;;;;;8.52;6.70;;;;;;;;;;5082427;28;20038;-45
2022/12/10 11:12:30;;;;;;;10.93;6.63;;;;;;;;;;5085777;28;20135;-48
2022/12/10 11:14:55;;;;;;;7.38;6.60;;;;;;;;;;5086978;28;20067;-45
2022/12/10 11:17:23;;;;;;;11.90;9.40;;;;;;;;;;5086382;28;20035;-46
2022/12/10 11:20:14;;;;;;;9.25;6.68;;;;;;;;;;5084077;28;20039;-47
2022/12/10 11:22:49;;;;;;;8.35;7.43;;;;;;;;;;5084444;28;20036;-45
2022/12/10 11:25:15;;;;;;;5.35;4.82;;;;;;;;;;5083187;28;20028;-46
2022/12/10 11:27:49;;;;;;;9.52;7.63;;;;;;;;;;5076233;28;20375;-44
2022/12/10 11:30:22;;;;;;;10.48;7.68;;;;;;;;;;5085100;28;20355;-48
2022/12/10 11:32:56;;;;;;;;;;;;;;;;;;5083901;28;20032;-46
2022/12/10 11:35:43;;;;;;;10.10;8.23;;;;;;;;;;5082980;28;20400;-51
2022/12/10 11:38:31;;;;;;;11.02;7.25;;;;;;;;;;5080613;28;20058;-46
2022/12/10 11:41:24;;;;;;;7.88;7.07;;;;;;;;;;5079792;28;20028;-45
2022/12/10 11:44:11;;;;;;;8.18;6.18;;;;;;;;;;5078533;28;20389;-49
2022/12/10 11:46:36;;;;;;;9.00;6.70;;;;;;;;;;5079573;27;20089;-49
2022/12/10 11:49:23;;;;;;;5.78;5.22;;;;;;;;;;5082960;28;20028;-45
2022/12/10 11:52:06;;;;;;;10.88;7.43;;;;;;;;;;5076792;28;20043;-48
2022/12/10 11:54:50;;;;;;;10.15;7.20;;;;;;;;;;5078274;28;20032;-48
2022/12/10 11:57:22;;;;;;;8.77;7.32;;;;;;;;;;5078013;28;20047;-43
2022/12/10 12:00:13;;;;;;;9.25;7.40;;;;;;;;;;5080734;28;20032;-48
2022/12/10 12:02:38;;;;;;;8.77;7.70;;;;;;;;;;5071845;28;20040;-48
2022/12/10 12:05:22;;;;;;;6.35;5.60;;;;;;;;;;5079275;28;20031;-43
2022/12/10 12:07:57;;;;;;;7.10;6.40;;;;;;;;;;5082747;27;20134;-51
2022/12/10 12:10:43;;;;;;;9.98;8.27;;;;;;;;;;5081152;28;20051;-49
2022/12/10 12:13:18;;;;;;;8.13;7.30;;;;;;;;;;5081081;28;20101;-46
2022/12/10 12:16:28;;;;;;;10.57;7.13;;;;;;;;;;5078961;28;20531;-47
2022/12/10 12:19:00;;;;;;;7.15;6.45;;;;;;;;;;5078938;28;20063;-44
2022/12/10 12:21:25;;;;;;;6.65;5.97;;;;;;;;;;5076490;28;20390;-50
2022/12/10 12:24:34;;;;;;;8.25;6.53;;;;;;;;;;5076060;28;20032;-47
2022/12/10 12:27:06;;;;;;;7.43;6.47;;;;;;;;;;5076195;28;20119;-46
2022/12/10 12:29:35;;;;;;;;;;;;;;;;;;5081080;28;20043;-45
2022/12/10 12:32:28;;;;;;;7.93;6.60;;;;;;;;;;5077189;28;19928;-45
2022/12/10 12:35:02;;;;;;;;;;;;;;;;;;5079412;28;20032;-45
2022/12/10 12:37:44;;;;;;;7.53;5.75;;;;;;;;;;5058952;28;19927;-44
2022/12/10 12:40:24;;;;;;;6.55;5.28;;;;;;;;;;5079013;28;20042;-44
2022/12/10 12:42:58;;;;;;;13.02;7.03;;;;;;;;;;5084020;28;20519;-44
2022/12/10 12:45:39;;;;;;;5.93;5.32;;;;;;;;;;5082361;28;20036;-45
2022/12/10 12:48:28;;;;;;;20.50;11.38;;;;;;;;;;5077548;28;20040;-45
2022/12/10 12:51:10;;;;;;;13.38;8.00;;;;;;;;;;5084001;28;20043;-45
2022/12/10 12:53:36;;;;;;;;;;;;;;;;;;5080741;28;20119;-46
2022/12/10 12:56:25;;;;;;;8.20;7.15;;;;;;;;;;5081177;28;20508;-45
2022/12/10 12:59:28;;;;;;;12.95;6.13;;;;;;;;;;5076231;28;20067;-45
2022/12/10 13:01:58;;;;;;;17.25;7.05;;;;;;;;;;5085733;28;20417;-46
2022/12/10 13:04:25;;;;;;;6.97;6.05;;;;;;;;;;5084897;28;20028;-44
2022/12/10 13:07:13;;;;;;;7.47;5.70;;;;;;;;;;5088694;28;20105;-45
2022/12/10 13:10:07;;;;;;;7.35;6.07;;;;;;;;;;5085836;28;20381;-46
2022/12/10 13:12:50;;;;;;;7.70;5.57;;;;;;;;;;5085180;27;20040;-48
2022/12/10 13:15:36;;;;;;;12.55;6.50;;;;;;;;;;5076782;28;20036;-45
2022/12/10 13:18:10;;;;;;;7.93;6.90;;;;;;;;;;5079323;28;20047;-47
2022/12/10 13:20:41;;;;;;;6.35;5.15;;;;;;;;;;5078319;28;20492;-46
2022/12/10 13:23:25;;;;;;;8.23;6.30;;;;;;;;;;5087457;28;20047;-44
2022/12/10 13:25:53;;;;;;;7.30;6.15;;;;;;;;;;5083076;28;20039;-44
2022/12/10 13:28:46;;;;;;;10.27;6.40;;;;;;;;;;5087516;28;20042;-44
2022/12/10 13:31:17;;;;;;;6.57;5.72;;;;;;;;;;5082648;28;20039;-45
2022/12/10 13:34:01;;;;;;;9.90;6.18;;;;;;;;;;5085286;28;20024;-47
2022/12/10 13:36:35;;;;;;;8.48;6.18;;;;;;;;;;5087847;28;20115;-44
2022/12/10 13:39:03;;;;;;;8.02;6.75;;;;;;;;;;5085267;28;20032;-46
2022/12/10 13:44:50;;;;;;;9.40;6.82;;;;;;;;;;5085756;28;20067;-45
2022/12/10 13:47:22;;;;;;;9.52;6.07;;;;;;;;;;5084216;28;20055;-48
2022/12/10 13:49:59;;;;;;;5.82;4.85;;;;;;;;;;5086445;28;20042;-46
2022/12/10 13:52:37;;;;;;;8.25;6.57;;;;;;;;;;5086355;28;20037;-45
2022/12/10 13:55:34;;;;;;;8.00;5.78;;;;;;;;;;5085389;28;20390;-47
2022/12/10 13:58:23;;;;;;;9.95;6.70;;;;;;;;;;5084965;28;20040;-49
2022/12/10 14:01:02;;;;;;;8.20;6.20;;;;;;;;;;5086673;28;20032;-45
2022/12/10 14:04:19;;;;;;;11.15;6.65;;;;;;;;;;5088635;28;20062;-44
2022/12/10 14:06:45;;;;;;;7.00;5.95;;;;;;;;;;5062345;28;20059;-44
2022/12/10 14:09:18;;;;;;;9.35;5.65;;;;;;;;;;5058496;28;20119;-45
2022/12/10 14:11:52;;;;;;;7.93;5.90;;;;;;;;;;5060505;28;20028;-45
2022/12/10 14:14:26;;;;;;;11.95;5.53;;;;;;;;;;5060461;28;20028;-45
2022/12/10 14:16:52;;;;;;;8.95;6.78;;;;;;;;;;5059799;28;20531;-44
2022/12/10 14:19:18;;;;;;;8.95;6.97;;;;;;;;;;5060762;28;20032;-44
2022/12/10 14:21:46;;;;;;;8.35;6.22;;;;;;;;;;5059309;28;20044;-50
2022/12/10 14:24:37;;;;;;;12.73;7.55;;;;;;;;;;5053834;28;20040;-43
2022/12/10 14:27:15;;;;;;;17.05;8.93;;;;;;;;;;5059590;28;20133;-45
2022/12/10 14:29:48;;;;;;;12.80;8.18;;;;;;;;;;5063380;28;20454;-48
2022/12/10 14:32:17;;;;;;;8.98;7.32;;;;;;;;;;5059162;28;20060;-44
2022/12/10 14:34:46;;;;;;;15.93;7.75;;;;;;;;;;5069090;28;20109;-45
2022/12/10 14:37:13;;;;;;;8.23;6.03;;;;;;;;;;5061891;28;20131;-46
2022/12/10 14:39:40;;;;;;;9.48;6.95;;;;;;;;;;5066519;28;20066;-46
2022/12/10 14:42:07;;;;;;;8.90;6.43;;;;;;;;;;5072313;28;20104;-44
2022/12/10 14:44:38;;;;;;;12.55;6.32;;;;;;;;;;5086195;28;20024;-46
2022/12/10 14:47:06;;;;;;;8.82;6.78;;;;;;;;;;5085161;28;20044;-44
2022/12/10 14:49:32;;;;;;;7.70;5.97;;;;;;;;;;5085066;28;20020;-45
2022/12/10 14:51:57;;;;;;;9.80;6.13;;;;;;;;;;5076809;28;20140;-45
2022/12/10 15:50:22;;;;;;;11.13;8.20;;;;;;;;;;4945070;28;20627;-38
2022/12/10 15:52:47;;;;;;;14.35;9.35;;;;;;;;;;4931392;29;20044;-38
2022/12/10 15:55:14;;;;;;;17.40;9.07;;;;;;;;;;4928845;28;20051;-38
2022/12/10 15:57:48;;;;;;;8.85;6.00;;;;;;;;;;4930537;28;20072;-40
2022/12/10 16:00:17;;;;;;;11.32;6.90;;;;;;;;;;4934887;28;20493;-39